Terminal Aerodrome Forecast
Issued by NWS Albuquerque, NM

Home | Current Version | Previous Version | Text Only | Print | Product List | Glossary On
Versions: 1 2 3 4 5 6 7 8 9 10 11 12 13 14 15 16 17 18
000
FTUS45 KABQ 240539
TAFABQ
TAF
KABQ 240539Z 2406/2506 28011KT P6SM VCSH SCT050 BKN080
      TEMPO 2406/2410 34011G21KT
     FM241100 30018G28KT P6SM SCT080
     FM250100 30006KT P6SM SCT120=

USA.gov is the U.S. government's official web portal to all federal, state and local government web resources and services.